sensor_id;sensor_type;location;lat;lon;timestamp;temperature;humidity
64858;SHT30;51335;51.148;6.950;2023-08-24T00:00:16;15.83;97.75
64858;SHT30;51335;51.148;6.950;2023-08-24T00:00:46;15.83;97.81
64858;SHT30;51335;51.148;6.950;2023-08-24T00:01:16;15.86;97.78
64858;SHT30;51335;51.148;6.950;2023-08-24T00:01:47;15.86;97.78
64858;SHT30;51335;51.148;6.950;2023-08-24T00:02:17;15.89;97.76
64858;SHT30;51335;51.148;6.950;2023-08-24T00:02:47;15.89;97.79
64858;SHT30;51335;51.148;6.950;2023-08-24T00:03:17;15.89;97.79
64858;SHT30;51335;51.148;6.950;2023-08-24T00:03:48;15.89;97.68
64858;SHT30;51335;51.148;6.950;2023-08-24T00:04:18;15.89;97.63
64858;SHT30;51335;51.148;6.950;2023-08-24T00:04:48;15.87;97.59
64858;SHT30;51335;51.148;6.950;2023-08-24T00:05:19;15.85;97.66
64858;SHT30;51335;51.148;6.950;2023-08-24T00:05:50;15.83;97.71
64858;SHT30;51335;51.148;6.950;2023-08-24T00:06:20;15.85;97.76
64858;SHT30;51335;51.148;6.950;2023-08-24T00:06:50;15.82;97.81
64858;SHT30;51335;51.148;6.950;2023-08-24T00:07:20;15.79;97.82
64858;SHT30;51335;51.148;6.950;2023-08-24T00:07:51;15.80;97.85
64858;SHT30;51335;51.148;6.950;2023-08-24T00:08:21;15.78;97.90
64858;SHT30;51335;51.148;6.950;2023-08-24T00:08:51;15.76;97.93
64858;SHT30;51335;51.148;6.950;2023-08-24T00:09:21;15.76;97.95
64858;SHT30;51335;51.148;6.950;2023-08-24T00:09:55;15.74;97.95
64858;SHT30;51335;51.148;6.950;2023-08-24T00:10:25;15.74;97.94
64858;SHT30;51335;51.148;6.950;2023-08-24T00:10:56;15.76;97.97
64858;SHT30;51335;51.148;6.950;2023-08-24T00:11:26;15.74;98.01
64858;SHT30;51335;51.148;6.950;2023-08-24T00:11:56;15.73;98.01
64858;SHT30;51335;51.148;6.950;2023-08-24T00:12:26;15.76;97.99
64858;SHT30;51335;51.148;6.950;2023-08-24T00:12:57;15.73;98.01
64858;SHT30;51335;51.148;6.950;2023-08-24T00:13:27;15.70;97.99
64858;SHT30;51335;51.148;6.950;2023-08-24T00:13:57;15.76;97.95
64858;SHT30;51335;51.148;6.950;2023-08-24T00:14:28;15.73;98.00
64858;SHT30;51335;51.148;6.950;2023-08-24T00:14:58;15.76;97.93
64858;SHT30;51335;51.148;6.950;2023-08-24T00:15:29;15.76;97.97
64858;SHT30;51335;51.148;6.950;2023-08-24T00:15:59;15.74;98.01
64858;SHT30;51335;51.148;6.950;2023-08-24T00:16:29;15.74;98.07
64858;SHT30;51335;51.148;6.950;2023-08-24T00:17:00;15.70;98.16
64858;SHT30;51335;51.148;6.950;2023-08-24T00:17:30;15.73;98.19
64858;SHT30;51335;51.148;6.950;2023-08-24T00:18:00;15.72;98.25
64858;SHT30;51335;51.148;6.950;2023-08-24T00:18:30;15.74;98.29
64858;SHT30;51335;51.148;6.950;2023-08-24T00:19:01;15.74;98.36
64858;SHT30;51335;51.148;6.950;2023-08-24T00:19:31;15.73;98.30
64858;SHT30;51335;51.148;6.950;2023-08-24T00:20:01;15.73;98.33
64858;SHT30;51335;51.148;6.950;2023-08-24T00:20:32;15.72;98.33
64858;SHT30;51335;51.148;6.950;2023-08-24T00:21:02;15.70;98.37
64858;SHT30;51335;51.148;6.950;2023-08-24T00:21:32;15.70;98.41
64858;SHT30;51335;51.148;6.950;2023-08-24T00:22:03;15.69;98.47
64858;SHT30;51335;51.148;6.950;2023-08-24T00:22:33;15.69;98.46
64858;SHT30;51335;51.148;6.950;2023-08-24T00:23:03;15.67;98.59
64858;SHT30;51335;51.148;6.950;2023-08-24T00:23:34;15.66;98.51
64858;SHT30;51335;51.148;6.950;2023-08-24T00:24:04;15.66;98.50
64858;SHT30;51335;51.148;6.950;2023-08-24T00:24:34;15.66;98.55
64858;SHT30;51335;51.148;6.950;2023-08-24T00:25:08;15.66;98.50
64858;SHT30;51335;51.148;6.950;2023-08-24T00:25:38;15.65;98.59
64858;SHT30;51335;51.148;6.950;2023-08-24T00:26:09;15.63;98.59
64858;SHT30;51335;51.148;6.950;2023-08-24T00:26:39;15.62;98.53
64858;SHT30;51335;51.148;6.950;2023-08-24T00:27:10;15.62;98.56
64858;SHT30;51335;51.148;6.950;2023-08-24T00:27:40;15.61;98.60
64858;SHT30;51335;51.148;6.950;2023-08-24T00:28:11;15.59;98.57
64858;SHT30;51335;51.148;6.950;2023-08-24T00:28:41;15.61;98.59
64858;SHT30;51335;51.148;6.950;2023-08-24T00:29:11;15.62;98.67
64858;SHT30;51335;51.148;6.950;2023-08-24T00:29:41;15.62;98.61
64858;SHT30;51335;51.148;6.950;2023-08-24T00:30:12;15.65;98.57
64858;SHT30;51335;51.148;6.950;2023-08-24T00:30:42;15.65;98.59
64858;SHT30;51335;51.148;6.950;2023-08-24T00:31:15;15.66;98.53
64858;SHT30;51335;51.148;6.950;2023-08-24T00:31:45;15.63;98.59
64858;SHT30;51335;51.148;6.950;2023-08-24T00:32:15;15.65;98.60
64858;SHT30;51335;51.148;6.950;2023-08-24T00:32:46;15.67;98.55
64858;SHT30;51335;51.148;6.950;2023-08-24T00:33:16;15.67;98.50
64858;SHT30;51335;51.148;6.950;2023-08-24T00:33:46;15.74;98.39
64858;SHT30;51335;51.148;6.950;2023-08-24T00:34:17;15.72;98.31
64858;SHT30;51335;51.148;6.950;2023-08-24T00:34:47;15.76;98.23
64858;SHT30;51335;51.148;6.950;2023-08-24T00:35:17;15.76;98.22
64858;SHT30;51335;51.148;6.950;2023-08-24T00:35:48;15.72;98.14
64858;SHT30;51335;51.148;6.950;2023-08-24T00:36:18;15.70;98.20
64858;SHT30;51335;51.148;6.950;2023-08-24T00:36:48;15.66;98.26
64858;SHT30;51335;51.148;6.950;2023-08-24T00:37:18;15.65;98.29
64858;SHT30;51335;51.148;6.950;2023-08-24T00:37:49;15.63;98.33
64858;SHT30;51335;51.148;6.950;2023-08-24T00:38:19;15.62;98.41
64858;SHT30;51335;51.148;6.950;2023-08-24T00:38:49;15.61;98.46
64858;SHT30;51335;51.148;6.950;2023-08-24T00:39:19;15.59;98.55
64858;SHT30;51335;51.148;6.950;2023-08-24T00:39:50;15.58;98.55
64858;SHT30;51335;51.148;6.950;2023-08-24T00:40:20;15.56;98.62
64858;SHT30;51335;51.148;6.950;2023-08-24T00:40:50;15.56;98.67
64858;SHT30;51335;51.148;6.950;2023-08-24T00:41:21;15.55;98.59
64858;SHT30;51335;51.148;6.950;2023-08-24T00:41:51;15.55;98.66
64858;SHT30;51335;51.148;6.950;2023-08-24T00:42:21;15.51;98.68
64858;SHT30;51335;51.148;6.950;2023-08-24T00:42:52;15.51;98.70
64858;SHT30;51335;51.148;6.950;2023-08-24T00:43:22;15.53;98.68
64858;SHT30;51335;51.148;6.950;2023-08-24T00:43:52;15.51;98.70
64858;SHT30;51335;51.148;6.950;2023-08-24T00:44:23;15.51;98.71
64858;SHT30;51335;51.148;6.950;2023-08-24T00:44:53;15.51;98.71
64858;SHT30;51335;51.148;6.950;2023-08-24T00:45:23;15.49;98.74
64858;SHT30;51335;51.148;6.950;2023-08-24T00:45:55;15.52;98.75
64858;SHT30;51335;51.148;6.950;2023-08-24T00:46:26;15.52;98.71
64858;SHT30;51335;51.148;6.950;2023-08-24T00:46:58;15.52;98.66
64858;SHT30;51335;51.148;6.950;2023-08-24T00:47:29;15.51;98.65
64858;SHT30;51335;51.148;6.950;2023-08-24T00:47:59;15.46;98.68
64858;SHT30;51335;51.148;6.950;2023-08-24T00:48:30;15.49;98.74
64858;SHT30;51335;51.148;6.950;2023-08-24T00:49:01;15.48;98.77
64858;SHT30;51335;51.148;6.950;2023-08-24T00:49:32;15.46;98.78
64858;SHT30;51335;51.148;6.950;2023-08-24T00:50:03;15.46;98.76
64858;SHT30;51335;51.148;6.950;2023-08-24T00:50:33;15.49;98.79
64858;SHT30;51335;51.148;6.950;2023-08-24T00:51:04;15.49;98.82
64858;SHT30;51335;51.148;6.950;2023-08-24T00:51:34;15.49;98.74
64858;SHT30;51335;51.148;6.950;2023-08-24T00:52:05;15.53;98.71
64858;SHT30;51335;51.148;6.950;2023-08-24T00:52:40;15.51;98.70
64858;SHT30;51335;51.148;6.950;2023-08-24T00:53:11;15.49;98.66
64858;SHT30;51335;51.148;6.950;2023-08-24T00:53:41;15.46;98.75
64858;SHT30;51335;51.148;6.950;2023-08-24T00:54:11;15.46;98.90
64858;SHT30;51335;51.148;6.950;2023-08-24T00:54:42;15.45;98.91
64858;SHT30;51335;51.148;6.950;2023-08-24T00:55:12;15.45;98.88
64858;SHT30;51335;51.148;6.950;2023-08-24T00:55:43;15.43;98.93
64858;SHT30;51335;51.148;6.950;2023-08-24T00:56:13;15.39;98.97
64858;SHT30;51335;51.148;6.950;2023-08-24T00:56:44;15.41;99.03
64858;SHT30;51335;51.148;6.950;2023-08-24T00:57:14;15.38;99.05
64858;SHT30;51335;51.148;6.950;2023-08-24T00:57:44;15.35;99.19
64858;SHT30;51335;51.148;6.950;2023-08-24T00:58:15;15.35;99.21
64858;SHT30;51335;51.148;6.950;2023-08-24T00:58:47;15.36;99.30
64858;SHT30;51335;51.148;6.950;2023-08-24T00:59:17;15.35;99.31
64858;SHT30;51335;51.148;6.950;2023-08-24T00:59:48;15.34;99.40
64858;SHT30;51335;51.148;6.950;2023-08-24T01:00:18;15.38;99.47
64858;SHT30;51335;51.148;6.950;2023-08-24T01:00:51;15.49;99.33
64858;SHT30;51335;51.148;6.950;2023-08-24T01:01:22;15.63;98.92
64858;SHT30;51335;51.148;6.950;2023-08-24T01:01:52;15.62;98.49
64858;SHT30;51335;51.148;6.950;2023-08-24T01:02:23;15.61;98.49
64858;SHT30;51335;51.148;6.950;2023-08-24T01:02:53;15.55;98.55
64858;SHT30;51335;51.148;6.950;2023-08-24T01:03:24;15.55;98.63
64858;SHT30;51335;51.148;6.950;2023-08-24T01:03:54;15.46;98.77
64858;SHT30;51335;51.148;6.950;2023-08-24T01:04:25;15.45;98.79
64858;SHT30;51335;51.148;6.950;2023-08-24T01:04:55;15.46;98.93
64858;SHT30;51335;51.148;6.950;2023-08-24T01:05:27;15.43;98.93
64858;SHT30;51335;51.148;6.950;2023-08-24T01:05:58;15.38;98.97
64858;SHT30;51335;51.148;6.950;2023-08-24T01:06:28;15.38;99.06
64858;SHT30;51335;51.148;6.950;2023-08-24T01:06:58;15.35;99.12
64858;SHT30;51335;51.148;6.950;2023-08-24T01:07:29;15.31;99.27
64858;SHT30;51335;51.148;6.950;2023-08-24T01:07:59;15.32;99.31
64858;SHT30;51335;51.148;6.950;2023-08-24T01:08:30;15.30;99.39
64858;SHT30;51335;51.148;6.950;2023-08-24T01:09:00;15.30;99.51
64858;SHT30;51335;51.148;6.950;2023-08-24T01:09:30;15.34;99.55
64858;SHT30;51335;51.148;6.950;2023-08-24T01:10:02;15.35;99.47
64858;SHT30;51335;51.148;6.950;2023-08-24T01:10:47;15.34;99.43
64858;SHT30;51335;51.148;6.950;2023-08-24T01:11:25;15.41;99.31
64858;SHT30;51335;51.148;6.950;2023-08-24T01:13:23;15.38;99.14
64858;SHT30;51335;51.148;6.950;2023-08-24T01:15:40;15.30;99.27
64858;SHT30;51335;51.148;6.950;2023-08-24T01:16:18;15.28;99.34
64858;SHT30;51335;51.148;6.950;2023-08-24T01:16:50;15.28;99.38
64858;SHT30;51335;51.148;6.950;2023-08-24T01:17:23;15.28;99.43
64858;SHT30;51335;51.148;6.950;2023-08-24T01:17:57;15.35;99.44
64858;SHT30;51335;51.148;6.950;2023-08-24T01:18:30;15.34;99.42
64858;SHT30;51335;51.148;6.950;2023-08-24T01:19:02;15.32;99.37
64858;SHT30;51335;51.148;6.950;2023-08-24T01:19:38;15.35;99.36
64858;SHT30;51335;51.148;6.950;2023-08-24T01:20:10;15.41;99.35
64858;SHT30;51335;51.148;6.950;2023-08-24T01:20:42;15.36;99.31
64858;SHT30;51335;51.148;6.950;2023-08-24T01:21:14;15.43;99.25
64858;SHT30;51335;51.148;6.950;2023-08-24T01:21:44;15.41;99.17
64858;SHT30;51335;51.148;6.950;2023-08-24T01:23:56;15.31;99.24
64858;SHT30;51335;51.148;6.950;2023-08-24T01:24:40;15.30;99.28
64858;SHT30;51335;51.148;6.950;2023-08-24T01:25:17;15.27;99.39
64858;SHT30;51335;51.148;6.950;2023-08-24T01:26:43;15.25;99.50
64858;SHT30;51335;51.148;6.950;2023-08-24T01:27:15;15.24;99.54
64858;SHT30;51335;51.148;6.950;2023-08-24T01:27:47;15.25;99.55
64858;SHT30;51335;51.148;6.950;2023-08-24T01:28:18;15.22;99.61
64858;SHT30;51335;51.148;6.950;2023-08-24T01:28:49;15.24;99.62
64858;SHT30;51335;51.148;6.950;2023-08-24T01:29:20;15.20;99.61
64858;SHT30;51335;51.148;6.950;2023-08-24T01:29:51;15.25;99.68
64858;SHT30;51335;51.148;6.950;2023-08-24T01:30:22;15.24;99.64
64858;SHT30;51335;51.148;6.950;2023-08-24T01:30:52;15.22;99.63
64858;SHT30;51335;51.148;6.950;2023-08-24T01:31:24;15.24;99.62
64858;SHT30;51335;51.148;6.950;2023-08-24T01:31:55;15.25;99.62
64858;SHT30;51335;51.148;6.950;2023-08-24T01:32:25;15.25;99.63
64858;SHT30;51335;51.148;6.950;2023-08-24T01:32:55;15.30;99.57
64858;SHT30;51335;51.148;6.950;2023-08-24T01:33:25;15.31;99.56
64858;SHT30;51335;51.148;6.950;2023-08-24T01:33:56;15.30;99.53
64858;SHT30;51335;51.148;6.950;2023-08-24T01:34:26;15.28;99.52
64858;SHT30;51335;51.148;6.950;2023-08-24T01:34:56;15.30;99.48
64858;SHT30;51335;51.148;6.950;2023-08-24T01:35:27;15.25;99.51
64858;SHT30;51335;51.148;6.950;2023-08-24T01:35:57;15.28;99.50
64858;SHT30;51335;51.148;6.950;2023-08-24T01:36:27;15.28;99.56
64858;SHT30;51335;51.148;6.950;2023-08-24T01:36:58;15.24;99.58
64858;SHT30;51335;51.148;6.950;2023-08-24T01:37:28;15.28;99.58
64858;SHT30;51335;51.148;6.950;2023-08-24T01:37:58;15.27;99.63
64858;SHT30;51335;51.148;6.950;2023-08-24T01:38:29;15.28;99.66
64858;SHT30;51335;51.148;6.950;2023-08-24T01:39:12;15.27;99.64
64858;SHT30;51335;51.148;6.950;2023-08-24T01:40:00;15.32;99.57
64858;SHT30;51335;51.148;6.950;2023-08-24T01:40:43;15.30;99.55
64858;SHT30;51335;51.148;6.950;2023-08-24T01:41:19;15.32;99.49
64858;SHT30;51335;51.148;6.950;2023-08-24T01:41:53;15.31;99.45
64858;SHT30;51335;51.148;6.950;2023-08-24T01:42:29;15.32;99.44
64858;SHT30;51335;51.148;6.950;2023-08-24T01:43:06;15.31;99.41
64858;SHT30;51335;51.148;6.950;2023-08-24T01:43:39;15.32;99.37
64858;SHT30;51335;51.148;6.950;2023-08-24T01:44:12;15.34;99.31
64858;SHT30;51335;51.148;6.950;2023-08-24T01:44:48;15.31;99.33
64858;SHT30;51335;51.148;6.950;2023-08-24T01:45:22;15.32;99.35
64858;SHT30;51335;51.148;6.950;2023-08-24T01:45:56;15.34;99.31
64858;SHT30;51335;51.148;6.950;2023-08-24T01:46:28;15.34;99.26
64858;SHT30;51335;51.148;6.950;2023-08-24T01:47:01;15.32;99.31
64858;SHT30;51335;51.148;6.950;2023-08-24T01:47:33;15.36;99.21
64858;SHT30;51335;51.148;6.950;2023-08-24T01:48:05;15.36;99.16
64858;SHT30;51335;51.148;6.950;2023-08-24T01:48:36;15.34;99.15
64858;SHT30;51335;51.148;6.950;2023-08-24T01:49:07;15.39;99.14
64858;SHT30;51335;51.148;6.950;2023-08-24T01:49:39;15.38;99.07
64858;SHT30;51335;51.148;6.950;2023-08-24T01:50:10;15.43;99.12
64858;SHT30;51335;51.148;6.950;2023-08-24T01:50:41;15.46;98.97
64858;SHT30;51335;51.148;6.950;2023-08-24T01:51:12;15.46;98.86
64858;SHT30;51335;51.148;6.950;2023-08-24T01:51:43;15.52;98.80
64858;SHT30;51335;51.148;6.950;2023-08-24T01:52:14;15.58;98.70
64858;SHT30;51335;51.148;6.950;2023-08-24T01:52:44;15.53;98.71
64858;SHT30;51335;51.148;6.950;2023-08-24T01:53:15;15.52;98.65
64858;SHT30;51335;51.148;6.950;2023-08-24T01:53:45;15.55;98.61
64858;SHT30;51335;51.148;6.950;2023-08-24T01:54:15;15.55;98.60
64858;SHT30;51335;51.148;6.950;2023-08-24T01:54:47;15.55;98.59
64858;SHT30;51335;51.148;6.950;2023-08-24T01:55:18;15.55;98.60
64858;SHT30;51335;51.148;6.950;2023-08-24T01:55:49;15.52;98.62
64858;SHT30;51335;51.148;6.950;2023-08-24T01:56:19;15.51;98.63
64858;SHT30;51335;51.148;6.950;2023-08-24T01:56:50;15.52;98.66
64858;SHT30;51335;51.148;6.950;2023-08-24T01:57:20;15.49;98.71
64858;SHT30;51335;51.148;6.950;2023-08-24T01:57:50;15.51;98.78
64858;SHT30;51335;51.148;6.950;2023-08-24T01:58:21;15.49;98.81
64858;SHT30;51335;51.148;6.950;2023-08-24T01:58:51;15.48;98.88
64858;SHT30;51335;51.148;6.950;2023-08-24T01:59:21;15.51;98.93
64858;SHT30;51335;51.148;6.950;2023-08-24T01:59:51;15.48;98.86
64858;SHT30;51335;51.148;6.950;2023-08-24T02:00:22;15.51;98.92
64858;SHT30;51335;51.148;6.950;2023-08-24T02:00:52;15.53;98.79
64858;SHT30;51335;51.148;6.950;2023-08-24T02:01:23;15.49;98.74
64858;SHT30;51335;51.148;6.950;2023-08-24T02:01:53;15.53;98.79
64858;SHT30;51335;51.148;6.950;2023-08-24T02:02:24;15.58;98.70
64858;SHT30;51335;51.148;6.950;2023-08-24T02:02:55;15.62;98.62
64858;SHT30;51335;51.148;6.950;2023-08-24T02:03:25;15.63;98.50
64858;SHT30;51335;51.148;6.950;2023-08-24T02:03:55;15.62;98.48
64858;SHT30;51335;51.148;6.950;2023-08-24T02:04:25;15.61;98.45
64858;SHT30;51335;51.148;6.950;2023-08-24T02:04:56;15.59;98.44
64858;SHT30;51335;51.148;6.950;2023-08-24T02:05:26;15.61;98.52
64858;SHT30;51335;51.148;6.950;2023-08-24T02:05:56;15.55;98.57
64858;SHT30;51335;51.148;6.950;2023-08-24T02:06:27;15.62;98.58
64858;SHT30;51335;51.148;6.950;2023-08-24T02:06:57;15.59;98.58
64858;SHT30;51335;51.148;6.950;2023-08-24T02:07:27;15.56;98.55
64858;SHT30;51335;51.148;6.950;2023-08-24T02:07:57;15.59;98.57
64858;SHT30;51335;51.148;6.950;2023-08-24T02:08:28;15.62;98.46
64858;SHT30;51335;51.148;6.950;2023-08-24T02:08:58;15.67;98.32
64858;SHT30;51335;51.148;6.950;2023-08-24T02:09:28;15.66;98.26
64858;SHT30;51335;51.148;6.950;2023-08-24T02:09:58;15.63;98.25
64858;SHT30;51335;51.148;6.950;2023-08-24T02:10:29;15.63;98.32
64858;SHT30;51335;51.148;6.950;2023-08-24T02:10:59;15.65;98.32
64858;SHT30;51335;51.148;6.950;2023-08-24T02:11:29;15.63;98.32
64858;SHT30;51335;51.148;6.950;2023-08-24T02:11:59;15.66;98.25
64858;SHT30;51335;51.148;6.950;2023-08-24T02:12:30;15.66;98.23
64858;SHT30;51335;51.148;6.950;2023-08-24T02:13:00;15.62;98.20
64858;SHT30;51335;51.148;6.950;2023-08-24T02:13:30;15.65;98.28
64858;SHT30;51335;51.148;6.950;2023-08-24T02:14:00;15.62;98.35
64858;SHT30;51335;51.148;6.950;2023-08-24T02:14:31;15.65;98.47
64858;SHT30;51335;51.148;6.950;2023-08-24T02:15:01;15.61;98.44
64858;SHT30;51335;51.148;6.950;2023-08-24T02:15:31;15.58;98.43
64858;SHT30;51335;51.148;6.950;2023-08-24T02:16:03;15.59;98.64
64858;SHT30;51335;51.148;6.950;2023-08-24T02:16:33;15.58;98.63
64858;SHT30;51335;51.148;6.950;2023-08-24T02:17:05;15.53;98.67
64858;SHT30;51335;51.148;6.950;2023-08-24T02:17:35;15.55;98.72
64858;SHT30;51335;51.148;6.950;2023-08-24T02:18:07;15.53;98.84
64858;SHT30;51335;51.148;6.950;2023-08-24T02:18:37;15.55;98.91
64858;SHT30;51335;51.148;6.950;2023-08-24T02:19:07;15.53;98.85
64858;SHT30;51335;51.148;6.950;2023-08-24T02:19:38;15.51;98.85
64858;SHT30;51335;51.148;6.950;2023-08-24T02:20:08;15.48;98.88
64858;SHT30;51335;51.148;6.950;2023-08-24T02:20:39;15.46;98.88
64858;SHT30;51335;51.148;6.950;2023-08-24T02:21:10;15.45;98.89
64858;SHT30;51335;51.148;6.950;2023-08-24T02:21:40;15.45;98.90
64858;SHT30;51335;51.148;6.950;2023-08-24T02:22:10;15.42;99.05
64858;SHT30;51335;51.148;6.950;2023-08-24T02:22:41;15.41;99.06
64858;SHT30;51335;51.148;6.950;2023-08-24T02:23:11;15.39;99.09
64858;SHT30;51335;51.148;6.950;2023-08-24T02:23:41;15.36;99.14
64858;SHT30;51335;51.148;6.950;2023-08-24T02:24:11;15.38;99.21
64858;SHT30;51335;51.148;6.950;2023-08-24T02:24:42;15.35;99.19
64858;SHT30;51335;51.148;6.950;2023-08-24T02:25:12;15.36;99.19
64858;SHT30;51335;51.148;6.950;2023-08-24T02:25:42;15.35;99.25
64858;SHT30;51335;51.148;6.950;2023-08-24T02:26:13;15.35;99.25
64858;SHT30;51335;51.148;6.950;2023-08-24T02:26:43;15.35;99.28
64858;SHT30;51335;51.148;6.950;2023-08-24T02:27:13;15.36;99.28
64858;SHT30;51335;51.148;6.950;2023-08-24T02:27:44;15.36;99.21
64858;SHT30;51335;51.148;6.950;2023-08-24T02:28:14;15.38;99.16
64858;SHT30;51335;51.148;6.950;2023-08-24T02:28:44;15.46;99.06
64858;SHT30;51335;51.148;6.950;2023-08-24T02:29:14;15.46;98.92
64858;SHT30;51335;51.148;6.950;2023-08-24T02:29:45;15.46;98.88
64858;SHT30;51335;51.148;6.950;2023-08-24T02:30:15;15.45;98.87
64858;SHT30;51335;51.148;6.950;2023-08-24T02:30:45;15.43;98.86
64858;SHT30;51335;51.148;6.950;2023-08-24T02:31:15;15.43;98.93
64858;SHT30;51335;51.148;6.950;2023-08-24T02:31:46;15.42;98.96
64858;SHT30;51335;51.148;6.950;2023-08-24T02:32:16;15.39;99.03
64858;SHT30;51335;51.148;6.950;2023-08-24T02:32:46;15.38;99.06
64858;SHT30;51335;51.148;6.950;2023-08-24T02:33:16;15.35;99.16
64858;SHT30;51335;51.148;6.950;2023-08-24T02:33:47;15.35;99.14
64858;SHT30;51335;51.148;6.950;2023-08-24T02:34:17;15.35;99.22
64858;SHT30;51335;51.148;6.950;2023-08-24T02:34:48;15.35;99.27
64858;SHT30;51335;51.148;6.950;2023-08-24T02:35:18;15.32;99.31
64858;SHT30;51335;51.148;6.950;2023-08-24T02:35:48;15.31;99.30
64858;SHT30;51335;51.148;6.950;2023-08-24T02:36:19;15.30;99.36
64858;SHT30;51335;51.148;6.950;2023-08-24T02:36:49;15.28;99.46
64858;SHT30;51335;51.148;6.950;2023-08-24T02:37:20;15.31;99.49
64858;SHT30;51335;51.148;6.950;2023-08-24T02:37:50;15.30;99.49
64858;SHT30;51335;51.148;6.950;2023-08-24T02:38:21;15.32;99.51
64858;SHT30;51335;51.148;6.950;2023-08-24T02:38:51;15.34;99.50
64858;SHT30;51335;51.148;6.950;2023-08-24T02:39:21;15.38;99.43
64858;SHT30;51335;51.148;6.950;2023-08-24T02:39:51;15.38;99.36
64858;SHT30;51335;51.148;6.950;2023-08-24T02:40:22;15.36;99.34
64858;SHT30;51335;51.148;6.950;2023-08-24T02:41:06;15.35;99.34
64858;SHT30;51335;51.148;6.950;2023-08-24T02:41:36;15.41;99.36
64858;SHT30;51335;51.148;6.950;2023-08-24T02:42:06;15.52;99.25
64858;SHT30;51335;51.148;6.950;2023-08-24T02:42:37;15.65;98.96
64858;SHT30;51335;51.148;6.950;2023-08-24T02:43:07;15.70;98.65
64858;SHT30;51335;51.148;6.950;2023-08-24T02:43:37;15.69;98.50
64858;SHT30;51335;51.148;6.950;2023-08-24T02:44:07;15.78;98.34
64858;SHT30;51335;51.148;6.950;2023-08-24T02:44:38;15.82;98.00
64858;SHT30;51335;51.148;6.950;2023-08-24T02:45:08;15.86;97.85
64858;SHT30;51335;51.148;6.950;2023-08-24T02:45:39;15.87;97.69
64858;SHT30;51335;51.148;6.950;2023-08-24T02:46:09;15.83;97.73
64858;SHT30;51335;51.148;6.950;2023-08-24T02:46:39;15.83;97.68
64858;SHT30;51335;51.148;6.950;2023-08-24T02:47:09;15.82;97.75
64858;SHT30;51335;51.148;6.950;2023-08-24T02:47:40;15.79;97.84
64858;SHT30;51335;51.148;6.950;2023-08-24T02:48:10;15.74;97.92
64858;SHT30;51335;51.148;6.950;2023-08-24T02:48:40;15.76;98.05
64858;SHT30;51335;51.148;6.950;2023-08-24T02:49:10;15.69;98.09
64858;SHT30;51335;51.148;6.950;2023-08-24T02:49:41;15.67;98.21
64858;SHT30;51335;51.148;6.950;2023-08-24T02:50:11;15.62;98.32
64858;SHT30;51335;51.148;6.950;2023-08-24T02:50:45;15.62;98.43
64858;SHT30;51335;51.148;6.950;2023-08-24T02:51:16;15.59;98.55
64858;SHT30;51335;51.148;6.950;2023-08-24T02:51:46;15.56;98.57
64858;SHT30;51335;51.148;6.950;2023-08-24T02:52:16;15.58;98.71
64858;SHT30;51335;51.148;6.950;2023-08-24T02:52:47;15.58;98.77
64858;SHT30;51335;51.148;6.950;2023-08-24T02:53:17;15.58;98.76
64858;SHT30;51335;51.148;6.950;2023-08-24T02:53:47;15.55;98.87
64858;SHT30;51335;51.148;6.950;2023-08-24T02:54:17;15.53;98.85
64858;SHT30;51335;51.148;6.950;2023-08-24T02:54:48;15.52;98.88
64858;SHT30;51335;51.148;6.950;2023-08-24T02:55:18;15.55;98.99
64858;SHT30;51335;51.148;6.950;2023-08-24T02:55:48;15.52;98.99
64858;SHT30;51335;51.148;6.950;2023-08-24T02:56:18;15.55;99.07
64858;SHT30;51335;51.148;6.950;2023-08-24T02:56:49;15.56;98.96
64858;SHT30;51335;51.148;6.950;2023-08-24T02:57:19;15.56;98.98
64858;SHT30;51335;51.148;6.950;2023-08-24T02:57:49;15.59;99.04
64858;SHT30;51335;51.148;6.950;2023-08-24T02:58:19;15.59;99.02
64858;SHT30;51335;51.148;6.950;2023-08-24T02:58:50;15.62;99.03
64858;SHT30;51335;51.148;6.950;2023-08-24T02:59:20;15.69;98.80
64858;SHT30;51335;51.148;6.950;2023-08-24T02:59:50;15.70;98.58
64858;SHT30;51335;51.148;6.950;2023-08-24T03:00:21;15.73;98.58
64858;SHT30;51335;51.148;6.950;2023-08-24T03:00:51;15.76;98.46
64858;SHT30;51335;51.148;6.950;2023-08-24T03:01:21;15.83;98.06
64858;SHT30;51335;51.148;6.950;2023-08-24T03:01:51;15.85;97.83
64858;SHT30;51335;51.148;6.950;2023-08-24T03:02:22;15.82;97.81
64858;SHT30;51335;51.148;6.950;2023-08-24T03:02:52;15.86;97.87
64858;SHT30;51335;51.148;6.950;2023-08-24T03:03:23;15.94;97.48
64858;SHT30;51335;51.148;6.950;2023-08-24T03:03:53;15.97;97.08
64858;SHT30;51335;51.148;6.950;2023-08-24T03:04:23;16.01;96.91
64858;SHT30;51335;51.148;6.950;2023-08-24T03:04:54;16.03;96.71
64858;SHT30;51335;51.148;6.950;2023-08-24T03:05:24;16.00;96.71
64858;SHT30;51335;51.148;6.950;2023-08-24T03:05:59;15.96;96.76
64858;SHT30;51335;51.148;6.950;2023-08-24T03:06:29;16.00;96.83
64858;SHT30;51335;51.148;6.950;2023-08-24T03:07:00;15.96;96.84
64858;SHT30;51335;51.148;6.950;2023-08-24T03:07:30;15.97;96.90
64858;SHT30;51335;51.148;6.950;2023-08-24T03:08:00;15.94;96.95
64858;SHT30;51335;51.148;6.950;2023-08-24T03:08:31;15.94;97.01
64858;SHT30;51335;51.148;6.950;2023-08-24T03:09:02;15.91;97.08
64858;SHT30;51335;51.148;6.950;2023-08-24T03:09:34;15.89;97.05
64858;SHT30;51335;51.148;6.950;2023-08-24T03:10:05;15.86;97.21
64858;SHT30;51335;51.148;6.950;2023-08-24T03:10:36;15.89;97.28
64858;SHT30;51335;51.148;6.950;2023-08-24T03:11:06;15.93;97.18
64858;SHT30;51335;51.148;6.950;2023-08-24T03:11:36;15.93;97.21
64858;SHT30;51335;51.148;6.950;2023-08-24T03:12:07;15.89;97.20
64858;SHT30;51335;51.148;6.950;2023-08-24T03:12:37;15.85;97.26
64858;SHT30;51335;51.148;6.950;2023-08-24T03:13:07;15.80;97.50
64858;SHT30;51335;51.148;6.950;2023-08-24T03:13:38;15.78;97.71
64858;SHT30;51335;51.148;6.950;2023-08-24T03:14:08;15.74;97.99
64858;SHT30;51335;51.148;6.950;2023-08-24T03:14:38;15.74;97.91
64858;SHT30;51335;51.148;6.950;2023-08-24T03:15:08;15.74;98.09
64858;SHT30;51335;51.148;6.950;2023-08-24T03:15:39;15.73;98.15
64858;SHT30;51335;51.148;6.950;2023-08-24T03:16:09;15.73;98.33
64858;SHT30;51335;51.148;6.950;2023-08-24T03:16:39;15.72;98.40
64858;SHT30;51335;51.148;6.950;2023-08-24T03:17:10;15.73;98.51
64858;SHT30;51335;51.148;6.950;2023-08-24T03:17:40;15.74;98.56
64858;SHT30;51335;51.148;6.950;2023-08-24T03:18:15;15.73;98.57
64858;SHT30;51335;51.148;6.950;2023-08-24T03:18:46;15.70;98.62
64858;SHT30;51335;51.148;6.950;2023-08-24T03:19:16;15.72;98.72
64858;SHT30;51335;51.148;6.950;2023-08-24T03:19:46;15.69;98.76
64858;SHT30;51335;51.148;6.950;2023-08-24T03:20:17;15.70;98.78
64858;SHT30;51335;51.148;6.950;2023-08-24T03:20:48;15.70;98.82
64858;SHT30;51335;51.148;6.950;2023-08-24T03:21:19;15.69;98.76